createdAt,value
2022-10-06T00:00:20.903Z,100.00
2022-10-06T00:02:23.204Z,100.00
2022-10-06T00:04:24.792Z,100.00
2022-10-06T00:06:26.270Z,100.00
2022-10-06T00:08:28.201Z,100.00
2022-10-06T00:10:30.384Z,100.00
2022-10-06T00:12:39.247Z,100.00
2022-10-06T00:14:40.766Z,100.00
2022-10-06T00:16:43.733Z,100.00
2022-10-06T00:18:45.416Z,100.00
2022-10-06T00:20:54.136Z,100.00
2022-10-06T00:22:56.276Z,100.00
2022-10-06T00:24:57.694Z,100.00
2022-10-06T00:26:59.124Z,100.00
2022-10-06T00:29:00.774Z,100.00
2022-10-06T00:31:02.479Z,100.00
2022-10-06T00:33:05.494Z,100.00
2022-10-06T00:35:08.151Z,100.00
2022-10-06T00:37:09.711Z,100.00
2022-10-06T00:39:11.145Z,100.00
2022-10-06T00:41:14.180Z,100.00
2022-10-06T00:43:55.568Z,100.00
2022-10-06T00:45:57.040Z,100.00
2022-10-06T00:48:02.456Z,100.00
2022-10-06T00:50:06.316Z,100.00
2022-10-06T00:52:10.649Z,100.00
2022-10-06T00:54:12.679Z,100.00
2022-10-06T00:56:14.262Z,100.00
2022-10-06T00:58:16.292Z,100.00
2022-10-06T01:00:18.117Z,100.00
2022-10-06T01:02:25.255Z,100.00
2022-10-06T01:04:27.344Z,100.00
2022-10-06T01:06:40.414Z,100.00
2022-10-06T01:08:42.000Z,100.00
2022-10-06T01:10:43.604Z,100.00
2022-10-06T01:12:45.482Z,100.00
2022-10-06T01:14:47.985Z,100.00
2022-10-06T01:16:55.661Z,100.00
2022-10-06T01:18:57.226Z,100.00
2022-10-06T01:21:05.723Z,100.00
2022-10-06T01:23:08.976Z,100.00
2022-10-06T01:25:13.636Z,100.00
2022-10-06T01:27:16.390Z,100.00
2022-10-06T01:29:18.667Z,100.00
2022-10-06T01:31:20.659Z,100.00
2022-10-06T01:33:22.704Z,100.00
2022-10-06T01:35:24.898Z,100.00
2022-10-06T01:37:26.547Z,100.00
2022-10-06T01:39:29.396Z,100.00
2022-10-06T01:41:30.834Z,100.00
2022-10-06T01:43:32.311Z,100.00
2022-10-06T01:45:33.758Z,100.00
2022-10-06T01:47:35.502Z,100.00
2022-10-06T01:49:36.990Z,100.00
2022-10-06T01:51:38.430Z,100.00
2022-10-06T01:53:39.834Z,100.00
2022-10-06T01:55:42.999Z,100.00
2022-10-06T01:57:44.458Z,100.00
2022-10-06T01:59:45.898Z,100.00
2022-10-06T02:01:47.467Z,100.00
2022-10-06T02:03:48.971Z,100.00
2022-10-06T02:05:50.410Z,100.00
2022-10-06T02:07:51.857Z,100.00
2022-10-06T02:09:53.313Z,100.00
2022-10-06T02:11:56.246Z,100.00
2022-10-06T02:13:57.706Z,100.00
2022-10-06T02:15:59.336Z,100.00
2022-10-06T02:18:00.818Z,100.00
2022-10-06T02:20:02.306Z,100.00
2022-10-06T02:22:04.412Z,100.00
2022-10-06T02:24:06.138Z,100.00
2022-10-06T02:26:07.820Z,100.00
2022-10-06T02:28:10.777Z,100.00
2022-10-06T02:30:12.651Z,100.00
2022-10-06T02:32:14.144Z,100.00
2022-10-06T02:34:15.609Z,100.00
2022-10-06T02:36:17.633Z,100.00
2022-10-06T02:38:19.119Z,100.00
2022-10-06T02:40:20.582Z,100.00
2022-10-06T02:42:22.012Z,100.00
2022-10-06T02:44:24.845Z,100.00
2022-10-06T02:46:26.416Z,100.00
2022-10-06T02:48:29.044Z,100.00
2022-10-06T02:50:30.709Z,100.00
2022-10-06T02:52:33.158Z,100.00
2022-10-06T02:54:34.900Z,100.00
2022-10-06T02:56:36.360Z,100.00
2022-10-06T02:58:38.626Z,100.00
2022-10-06T03:00:41.497Z,100.00
2022-10-06T03:02:43.101Z,100.00
2022-10-06T03:04:44.772Z,100.00
2022-10-06T03:06:46.287Z,100.00
2022-10-06T03:08:47.935Z,100.00
2022-10-06T03:10:49.518Z,100.00
2022-10-06T03:12:50.961Z,100.00
2022-10-06T03:14:52.431Z,100.00
2022-10-06T03:16:55.309Z,100.00
2022-10-06T03:18:56.754Z,100.00
2022-10-06T03:21:00.706Z,100.00
2022-10-06T03:23:02.156Z,100.00
2022-10-06T03:25:03.917Z,100.00
2022-10-06T03:27:05.482Z,100.00
2022-10-06T03:29:11.323Z,100.00
2022-10-06T03:31:14.429Z,100.00
2022-10-06T03:33:17.417Z,100.00
2022-10-06T03:35:18.881Z,100.00
2022-10-06T03:37:20.338Z,100.00
2022-10-06T03:39:22.022Z,100.00
2022-10-06T03:41:25.298Z,100.00
2022-10-06T03:43:26.805Z,100.00
2022-10-06T03:45:28.254Z,100.00
2022-10-06T03:47:30.080Z,100.00
2022-10-06T03:49:32.909Z,100.00
2022-10-06T03:51:38.287Z,100.00
2022-10-06T03:53:39.918Z,100.00
2022-10-06T03:55:41.366Z,100.00
2022-10-06T03:57:42.931Z,100.00
2022-10-06T03:59:44.427Z,100.00
2022-10-06T04:01:47.593Z,100.00
2022-10-06T04:03:49.289Z,100.00
2022-10-06T04:05:56.262Z,100.00
2022-10-06T04:07:57.786Z,100.00
2022-10-06T04:09:59.230Z,100.00
2022-10-06T04:12:00.666Z,100.00
2022-10-06T04:14:03.876Z,100.00
2022-10-06T04:16:14.009Z,100.00
2022-10-06T04:18:16.277Z,100.00
2022-10-06T04:20:17.694Z,100.00
2022-10-06T04:22:20.505Z,100.00
2022-10-06T04:24:21.941Z,100.00
2022-10-06T04:26:25.346Z,94.86
2022-10-06T04:28:27.467Z,96.29
2022-10-06T04:30:29.281Z,97.54
2022-10-06T04:32:30.729Z,97.25
2022-10-06T04:34:32.238Z,96.63
2022-10-06T04:36:35.905Z,97.07
2022-10-06T04:38:38.710Z,95.29
2022-10-06T04:40:40.179Z,94.87
2022-10-06T04:42:41.725Z,93.74
2022-10-06T04:44:43.168Z,91.59
2022-10-06T04:46:45.315Z,91.38
2022-10-06T04:48:48.383Z,91.54
2022-10-06T04:50:53.984Z,91.96
2022-10-06T04:52:55.512Z,90.47
2022-10-06T04:54:58.305Z,90.23
2022-10-06T04:56:59.735Z,91.03
2022-10-06T04:59:01.196Z,91.75
2022-10-06T05:01:04.315Z,92.82
2022-10-06T05:03:05.769Z,93.17
2022-10-06T05:05:07.555Z,93.17
2022-10-06T05:07:08.975Z,93.46
2022-10-06T05:09:13.001Z,92.50
2022-10-06T05:11:18.192Z,92.00
2022-10-06T05:13:20.906Z,91.54
2022-10-06T05:15:22.400Z,91.02
2022-10-06T05:17:23.939Z,90.30
2022-10-06T05:19:25.382Z,90.02
2022-10-06T05:21:29.210Z,91.55
2022-10-06T05:23:33.058Z,90.55
2022-10-06T05:25:34.484Z,90.76
2022-10-06T05:27:37.307Z,91.14
2022-10-06T05:29:38.856Z,90.34
2022-10-06T05:31:40.511Z,89.35
2022-10-06T05:33:42.479Z,89.28
2022-10-06T05:35:51.314Z,89.08
2022-10-06T05:37:54.490Z,88.67
2022-10-06T05:39:55.937Z,88.97
2022-10-06T05:41:59.150Z,90.26
2022-10-06T05:44:02.043Z,88.35
2022-10-06T05:46:05.371Z,87.68
2022-10-06T05:48:07.116Z,87.06
2022-10-06T05:50:09.378Z,87.04
2022-10-06T05:52:10.871Z,87.29
2022-10-06T05:54:12.342Z,86.90
2022-10-06T05:56:15.478Z,87.20
2022-10-06T05:58:18.584Z,87.36
2022-10-06T06:00:21.482Z,87.48
2022-10-06T06:02:23.053Z,87.93
2022-10-06T06:04:24.590Z,87.88
2022-10-06T06:06:27.979Z,88.55
2022-10-06T06:08:29.762Z,88.77
2022-10-06T06:10:32.309Z,89.28
2022-10-06T06:12:33.793Z,89.31
2022-10-06T06:14:35.244Z,90.04
2022-10-06T06:16:40.005Z,92.51
2022-10-06T06:18:41.748Z,91.26
2022-10-06T06:20:43.196Z,91.72
2022-10-06T06:22:44.622Z,90.87
2022-10-06T06:24:46.091Z,90.72
2022-10-06T06:26:47.542Z,89.44
2022-10-06T06:28:49.568Z,88.55
2022-10-06T06:30:59.011Z,89.29
2022-10-06T06:33:01.882Z,89.00
2022-10-06T06:35:03.846Z,88.52
2022-10-06T06:37:09.457Z,88.01
2022-10-06T06:39:14.479Z,87.38
2022-10-06T06:41:17.197Z,87.11
2022-10-06T06:43:18.668Z,87.47
2022-10-06T06:45:20.193Z,87.33
2022-10-06T06:47:23.127Z,87.36
2022-10-06T06:49:28.710Z,87.45
2022-10-06T06:51:30.579Z,88.34
2022-10-06T06:53:32.258Z,89.15
2022-10-06T06:55:33.769Z,88.96
2022-10-06T06:57:35.352Z,89.11
2022-10-06T06:59:36.848Z,88.43
2022-10-06T07:01:40.026Z,88.44
2022-10-06T07:03:58.650Z,89.62
2022-10-06T07:06:06.077Z,90.48
2022-10-06T07:08:08.123Z,91.41
2022-10-06T07:10:09.841Z,91.29
2022-10-06T07:12:11.345Z,91.38
2022-10-06T07:14:12.901Z,91.14
2022-10-06T07:16:16.091Z,91.90
2022-10-06T07:18:17.634Z,92.15
2022-10-06T07:20:19.137Z,92.59
2022-10-06T07:22:24.750Z,92.51
2022-10-06T07:24:26.465Z,93.75
2022-10-06T07:26:28.032Z,93.49
2022-10-06T07:28:29.530Z,92.73
2022-10-06T07:30:31.191Z,92.79
2022-10-06T07:32:32.938Z,93.54
2022-10-06T07:34:34.479Z,93.24
2022-10-06T07:36:38.372Z,92.96
2022-10-06T07:38:41.325Z,91.08
2022-10-06T07:40:50.559Z,91.22
2022-10-06T07:42:57.084Z,90.87
2022-10-06T07:44:58.637Z,89.94
2022-10-06T07:47:00.151Z,89.86
2022-10-06T07:49:01.747Z,90.60
2022-10-06T07:51:04.193Z,87.92
2022-10-06T07:53:05.968Z,87.37
2022-10-06T07:55:09.281Z,86.99
2022-10-06T07:57:10.845Z,84.95
2022-10-06T07:59:12.383Z,83.51
2022-10-06T08:01:16.136Z,83.77
2022-10-06T08:03:17.800Z,84.33
2022-10-06T08:05:19.410Z,83.68
2022-10-06T08:07:20.967Z,84.69
2022-10-06T08:09:22.505Z,84.44
2022-10-06T08:11:25.337Z,85.59
2022-10-06T08:13:27.128Z,86.70
2022-10-06T08:15:28.624Z,83.45
2022-10-06T08:17:30.284Z,80.04
2022-10-06T08:19:31.808Z,80.85
2022-10-06T08:21:33.547Z,76.63
2022-10-06T08:23:35.126Z,77.28
2022-10-06T08:25:36.635Z,75.43
2022-10-06T08:27:39.492Z,74.77
2022-10-06T08:29:41.080Z,75.36
2022-10-06T08:31:42.663Z,75.29
2022-10-06T08:33:45.422Z,72.59
2022-10-06T08:35:46.870Z,70.16
2022-10-06T08:37:48.410Z,70.72
2022-10-06T08:39:50.872Z,70.61
2022-10-06T08:41:52.489Z,70.70
2022-10-06T08:44:00.092Z,69.51
2022-10-06T08:46:03.093Z,69.64
2022-10-06T08:48:09.403Z,68.58
2022-10-06T08:50:12.138Z,67.81
2022-10-06T08:52:25.960Z,65.95
2022-10-06T08:54:35.007Z,65.97
2022-10-06T08:56:45.402Z,66.19
2022-10-06T08:58:52.958Z,65.84
2022-10-06T09:00:56.407Z,65.83
2022-10-06T09:02:58.021Z,65.53
2022-10-06T09:05:02.606Z,65.87
2022-10-06T09:07:11.581Z,65.89
2022-10-06T09:09:25.480Z,66.27
2022-10-06T09:11:40.323Z,65.12
2022-10-06T09:13:49.844Z,64.35
2022-10-06T09:15:58.817Z,64.46
2022-10-06T09:18:06.943Z,63.57
2022-10-06T09:20:14.072Z,63.05
2022-10-06T09:22:18.689Z,62.38
2022-10-06T09:24:29.314Z,62.63
2022-10-06T09:26:32.613Z,61.24
2022-10-06T09:28:34.181Z,61.74
2022-10-06T09:30:36.970Z,62.75
2022-10-06T09:32:45.955Z,61.59
2022-10-06T09:34:51.537Z,61.82
2022-10-06T09:37:02.003Z,62.32
2022-10-06T09:39:03.875Z,61.52
2022-10-06T09:41:05.659Z,60.85
2022-10-06T09:43:19.928Z,61.71
2022-10-06T09:45:25.721Z,61.83
2022-10-06T09:47:40.399Z,62.33
2022-10-06T09:49:42.123Z,62.85
2022-10-06T09:52:01.598Z,62.30
2022-10-06T09:54:09.342Z,61.73
2022-10-06T09:56:15.290Z,62.56
2022-10-06T09:58:21.796Z,63.11
2022-10-06T10:00:27.856Z,62.92
2022-10-06T10:02:32.884Z,62.46
2022-10-06T10:04:40.772Z,63.13
2022-10-06T10:06:42.333Z,62.45
2022-10-06T10:08:44.436Z,62.30
2022-10-06T10:10:46.305Z,60.97
2022-10-06T10:12:51.927Z,61.97
2022-10-06T10:14:55.438Z,63.32
2022-10-06T10:16:56.938Z,62.78
2022-10-06T10:18:58.443Z,63.35
2022-10-06T10:21:04.014Z,61.90
2022-10-06T10:23:21.806Z,61.15
2022-10-06T10:25:43.518Z,61.29
2022-10-06T10:27:55.936Z,62.20
2022-10-06T10:30:06.918Z,59.97
2022-10-06T10:32:13.508Z,60.58
2022-10-06T10:34:31.304Z,59.42
2022-10-06T10:36:39.449Z,60.29
2022-10-06T10:38:43.881Z,58.81
2022-10-06T10:40:48.558Z,59.84
2022-10-06T10:42:54.637Z,58.04
2022-10-06T10:45:00.542Z,57.84
2022-10-06T10:47:13.870Z,58.42
2022-10-06T10:49:19.663Z,56.93
2022-10-06T10:51:25.867Z,56.10
2022-10-06T10:53:41.757Z,55.10
2022-10-06T10:55:46.653Z,55.61
2022-10-06T10:57:51.386Z,57.18
2022-10-06T10:59:59.933Z,57.45
2022-10-06T11:02:11.768Z,57.46
2022-10-06T11:04:14.127Z,56.28
2022-10-06T11:06:37.130Z,55.92
2022-10-06T11:08:47.802Z,55.19
2022-10-06T11:10:53.787Z,56.48
2022-10-06T11:13:10.333Z,56.33
2022-10-06T11:15:21.221Z,53.94
2022-10-06T11:17:40.726Z,55.18
2022-10-06T11:19:51.278Z,54.01
2022-10-06T11:21:58.937Z,55.07
2022-10-06T11:24:10.320Z,53.63
2022-10-06T11:26:23.957Z,55.17
2022-10-06T11:28:31.474Z,54.68
2022-10-06T11:30:54.451Z,56.14
2022-10-06T11:33:07.704Z,56.44
2022-10-06T11:35:17.367Z,55.43
2022-10-06T11:37:30.304Z,55.37
2022-10-06T11:39:46.189Z,54.43
2022-10-06T11:41:52.478Z,54.65
2022-10-06T11:44:00.105Z,54.09
2022-10-06T11:46:04.831Z,54.45
2022-10-06T11:48:21.836Z,55.01
2022-10-06T11:50:35.378Z,52.80
2022-10-06T11:52:54.771Z,53.72
2022-10-06T11:55:08.608Z,53.17
2022-10-06T11:57:31.530Z,53.85
2022-10-06T11:59:33.037Z,54.85
2022-10-06T12:01:50.386Z,54.05
2022-10-06T12:04:04.949Z,55.74
2022-10-06T12:06:06.469Z,53.96
2022-10-06T12:08:14.142Z,54.65
2022-10-06T12:10:35.184Z,53.76
2022-10-06T12:13:06.197Z,52.65
2022-10-06T12:17:48.932Z,52.36
2022-10-06T12:19:57.592Z,52.55
2022-10-06T12:22:07.230Z,52.23
2022-10-06T12:24:24.028Z,52.86
2022-10-06T12:26:36.507Z,54.02
2022-10-06T12:28:43.070Z,73.06
2022-10-06T12:31:00.843Z,58.66
2022-10-06T12:33:02.382Z,54.44
2022-10-06T12:35:18.643Z,62.73
2022-10-06T12:37:33.607Z,53.58
2022-10-06T12:39:35.086Z,54.97
2022-10-06T12:42:00.897Z,52.79
2022-10-06T12:44:02.545Z,52.10
2022-10-06T12:46:12.295Z,51.72
2022-10-06T12:48:18.239Z,49.90
2022-10-06T12:50:24.040Z,50.17
2022-10-06T12:52:45.306Z,50.38
2022-10-06T12:55:02.504Z,50.78
2022-10-06T12:57:17.034Z,49.36
2022-10-06T12:59:22.957Z,50.27
2022-10-06T13:01:25.713Z,48.85
2022-10-06T13:03:29.192Z,48.86
2022-10-06T13:05:30.691Z,49.28
2022-10-06T13:07:33.619Z,49.40
2022-10-06T13:09:35.104Z,49.61
2022-10-06T13:11:36.593Z,49.74
2022-10-06T13:13:46.553Z,48.66
2022-10-06T13:15:48.048Z,48.57
2022-10-06T13:17:52.795Z,48.86
2022-10-06T13:19:54.472Z,48.97
2022-10-06T13:21:55.924Z,49.64
2022-10-06T13:23:57.439Z,49.41
2022-10-06T13:26:01.081Z,48.70
2022-10-06T13:28:02.611Z,49.86
2022-10-06T13:30:18.561Z,51.05
2022-10-06T13:32:20.433Z,51.12
2022-10-06T13:34:30.782Z,48.94
2022-10-06T13:36:34.486Z,48.58
2022-10-06T13:38:37.004Z,49.11
2022-10-06T13:40:46.014Z,48.69
2022-10-06T13:42:47.868Z,48.61
2022-10-06T13:44:56.033Z,48.49
2022-10-06T13:47:02.310Z,48.36
2022-10-06T13:49:17.408Z,49.00
2022-10-06T13:51:22.569Z,49.71
2022-10-06T13:53:27.924Z,50.90
2022-10-06T13:55:30.117Z,49.55
2022-10-06T13:57:36.596Z,50.09
2022-10-06T13:59:38.481Z,49.11
2022-10-06T14:01:40.148Z,48.86
2022-10-06T14:03:43.025Z,48.61
2022-10-06T14:05:45.445Z,49.05
2022-10-06T14:07:47.902Z,49.29
2022-10-06T14:09:50.096Z,48.51
2022-10-06T14:11:53.240Z,49.03
2022-10-06T14:13:57.982Z,48.91
2022-10-06T14:16:01.769Z,48.81
2022-10-06T14:18:04.807Z,49.38
2022-10-06T14:20:37.260Z,49.06
2022-10-06T14:22:38.721Z,49.89
2022-10-06T14:24:50.533Z,48.71
2022-10-06T14:26:52.071Z,48.98
2022-10-06T14:28:54.071Z,48.62
2022-10-06T14:30:55.911Z,49.75
2022-10-06T14:32:57.432Z,50.22
2022-10-06T14:34:58.883Z,49.09
2022-10-06T14:37:03.013Z,49.73
2022-10-06T14:39:07.909Z,49.48
2022-10-06T14:41:09.550Z,49.50
2022-10-06T14:43:11.717Z,49.25
2022-10-06T14:45:13.258Z,50.10
2022-10-06T14:47:14.719Z,50.62
2022-10-06T14:49:16.573Z,49.16
2022-10-06T14:51:18.486Z,49.56
2022-10-06T14:53:21.302Z,51.76
2022-10-06T14:55:22.759Z,50.40
2022-10-06T14:57:24.237Z,49.17
2022-10-06T14:59:25.709Z,50.50
2022-10-06T15:01:27.566Z,50.75
2022-10-06T15:03:29.207Z,51.40
2022-10-06T15:05:30.890Z,50.52
2022-10-06T15:07:32.356Z,51.25
2022-10-06T15:09:35.210Z,51.44
2022-10-06T15:11:37.603Z,51.33
2022-10-06T15:13:39.072Z,49.98
2022-10-06T15:15:40.571Z,50.57
2022-10-06T15:17:42.018Z,50.69
2022-10-06T15:19:43.471Z,51.34
2022-10-06T15:21:45.206Z,51.97
2022-10-06T15:23:47.091Z,52.41
2022-10-06T15:25:53.257Z,53.99
2022-10-06T15:27:55.186Z,52.33
2022-10-06T15:29:56.673Z,52.09
2022-10-06T15:31:58.129Z,52.84
2022-10-06T15:34:00.758Z,52.04
2022-10-06T15:36:16.271Z,52.96
2022-10-06T15:38:17.773Z,53.21
2022-10-06T15:40:19.262Z,52.95
2022-10-06T15:42:22.330Z,52.87
2022-10-06T15:44:24.164Z,53.62
2022-10-06T15:46:28.884Z,54.35
2022-10-06T15:48:30.426Z,53.17
2022-10-06T15:50:31.886Z,53.71
2022-10-06T15:52:33.366Z,53.92
2022-10-06T15:54:36.308Z,53.89
2022-10-06T15:56:38.278Z,54.24
2022-10-06T15:58:41.167Z,54.84
2022-10-06T16:00:42.606Z,54.62
2022-10-06T16:02:44.099Z,55.40
2022-10-06T16:04:46.985Z,55.41
2022-10-06T16:06:48.440Z,55.62
2022-10-06T16:08:49.872Z,55.71
2022-10-06T16:10:51.572Z,56.37
2022-10-06T16:12:53.098Z,56.36
2022-10-06T16:14:55.930Z,57.08
2022-10-06T16:16:59.787Z,57.84
2022-10-06T16:19:01.260Z,58.61
2022-10-06T16:21:02.886Z,59.82
2022-10-06T16:23:04.531Z,60.40
2022-10-06T16:25:06.508Z,60.50
2022-10-06T16:27:10.996Z,60.96
2022-10-06T16:29:12.788Z,61.63
2022-10-06T16:31:15.680Z,61.87
2022-10-06T16:33:17.180Z,62.62
2022-10-06T16:35:18.707Z,63.25
2022-10-06T16:37:20.158Z,63.86
2022-10-06T16:39:22.784Z,64.04
2022-10-06T16:41:24.551Z,63.66
2022-10-06T16:43:30.998Z,64.48
2022-10-06T16:45:32.441Z,64.15
2022-10-06T16:47:35.302Z,64.67
2022-10-06T16:49:36.750Z,64.55
2022-10-06T16:51:39.701Z,64.70
2022-10-06T16:53:42.710Z,64.90
2022-10-06T16:55:45.090Z,65.10
2022-10-06T16:57:46.533Z,65.67
2022-10-06T16:59:48.009Z,66.14
2022-10-06T17:01:50.441Z,66.12
2022-10-06T17:03:58.982Z,66.82
2022-10-06T17:06:06.347Z,66.79
2022-10-06T17:08:07.830Z,66.83
2022-10-06T17:10:19.983Z,67.29
2022-10-06T17:12:22.314Z,67.50
2022-10-06T17:14:24.436Z,67.76
2022-10-06T17:16:29.989Z,68.17
2022-10-06T17:18:32.398Z,67.87
2022-10-06T17:20:35.210Z,67.96
2022-10-06T17:22:36.799Z,67.96
2022-10-06T17:24:38.500Z,68.34
2022-10-06T17:26:42.112Z,69.09
2022-10-06T17:28:44.542Z,69.37
2022-10-06T17:30:51.813Z,69.42
2022-10-06T17:32:53.408Z,70.36
2022-10-06T17:34:54.847Z,70.12
2022-10-06T17:36:57.699Z,70.13
2022-10-06T17:39:00.890Z,70.05
2022-10-06T17:41:02.480Z,69.96
2022-10-06T17:43:04.000Z,70.31
2022-10-06T17:45:06.143Z,70.43
2022-10-06T17:47:07.593Z,71.07
2022-10-06T17:49:11.141Z,71.30
2022-10-06T17:51:14.950Z,72.35
2022-10-06T17:53:17.741Z,72.79
2022-10-06T17:55:19.257Z,73.28
2022-10-06T17:57:20.790Z,73.16
2022-10-06T17:59:23.760Z,73.18
2022-10-06T18:01:27.676Z,73.07
2022-10-06T18:03:29.154Z,73.76
2022-10-06T18:05:33.010Z,73.38
2022-10-06T18:07:35.169Z,73.59
2022-10-06T18:09:37.993Z,74.28
2022-10-06T18:11:39.817Z,73.62
2022-10-06T18:13:42.260Z,73.67
2022-10-06T18:15:43.799Z,73.83
2022-10-06T18:17:47.343Z,73.93
2022-10-06T18:19:48.801Z,74.05
2022-10-06T18:21:50.257Z,74.12
2022-10-06T18:23:52.523Z,74.24
2022-10-06T18:25:59.669Z,74.12
2022-10-06T18:28:01.392Z,74.43
2022-10-06T18:30:03.218Z,74.15
2022-10-06T18:32:41.033Z,74.26
2022-10-06T18:36:48.480Z,75.11
2022-10-06T18:38:49.971Z,75.45
2022-10-06T18:40:56.346Z,75.62
2022-10-06T18:42:59.181Z,76.14
2022-10-06T18:45:00.651Z,76.51
2022-10-06T18:47:02.211Z,76.98
2022-10-06T18:49:06.272Z,76.37
2022-10-06T18:51:07.770Z,77.05
2022-10-06T18:53:09.244Z,77.06
2022-10-06T18:55:10.747Z,77.40
2022-10-06T18:57:12.211Z,77.29
2022-10-06T18:59:15.272Z,77.23
2022-10-06T19:01:16.863Z,77.46
2022-10-06T19:03:18.440Z,78.26
2022-10-06T19:05:19.921Z,78.51
2022-10-06T19:07:21.347Z,78.82
2022-10-06T19:09:23.669Z,78.54
2022-10-06T19:11:25.230Z,78.16
2022-10-06T19:13:26.779Z,78.72
2022-10-06T19:15:29.640Z,79.01
2022-10-06T19:17:31.136Z,79.46
2022-10-06T19:19:32.937Z,79.51
2022-10-06T19:21:34.411Z,79.72
2022-10-06T19:23:37.353Z,80.19
2022-10-06T19:25:38.840Z,79.99
2022-10-06T19:27:40.616Z,80.42
2022-10-06T19:29:45.061Z,80.04
2022-10-06T19:31:48.288Z,80.75
2022-10-06T19:33:50.039Z,81.27
2022-10-06T19:35:51.803Z,81.73
2022-10-06T19:37:53.276Z,80.83
2022-10-06T19:39:54.793Z,86.73
2022-10-06T19:41:56.608Z,94.40
2022-10-06T19:43:58.119Z,95.72
2022-10-06T19:45:59.690Z,95.08
2022-10-06T19:48:02.547Z,83.06
2022-10-06T19:50:10.367Z,84.54
2022-10-06T19:52:13.311Z,89.99
2022-10-06T19:54:16.263Z,85.65
2022-10-06T19:56:19.397Z,87.05
2022-10-06T19:58:20.878Z,79.38
2022-10-06T20:00:22.478Z,82.41
2022-10-06T20:02:23.985Z,81.50
2022-10-06T20:04:26.885Z,83.74
2022-10-06T20:06:28.391Z,80.35
2022-10-06T20:08:30.232Z,80.35
2022-10-06T20:10:32.002Z,80.42
2022-10-06T20:12:33.539Z,81.09
2022-10-06T20:14:35.219Z,82.32
2022-10-06T20:16:37.165Z,82.99
2022-10-06T20:18:40.938Z,83.51
2022-10-06T20:20:43.705Z,84.27
2022-10-06T20:22:45.165Z,84.67
2022-10-06T20:24:47.242Z,85.10
2022-10-06T20:26:49.675Z,85.40
2022-10-06T20:28:51.370Z,85.79
2022-10-06T20:30:52.914Z,85.88
2022-10-06T20:32:54.480Z,85.70
2022-10-06T20:34:55.945Z,86.50
2022-10-06T20:36:59.008Z,86.76
2022-10-06T20:39:00.756Z,85.69
2022-10-06T20:41:02.453Z,85.64
2022-10-06T20:43:03.865Z,85.98
2022-10-06T20:45:06.236Z,86.49
2022-10-06T20:47:08.140Z,86.83
2022-10-06T20:49:11.686Z,86.54
2022-10-06T20:51:13.374Z,86.03
2022-10-06T20:53:16.169Z,86.16
2022-10-06T20:55:17.615Z,86.51
2022-10-06T20:57:19.255Z,86.49
2022-10-06T20:59:22.577Z,87.60
2022-10-06T21:01:24.216Z,86.41
2022-10-06T21:03:25.706Z,85.44
2022-10-06T21:05:27.218Z,85.66
2022-10-06T21:07:28.682Z,85.68
2022-10-06T21:09:31.608Z,86.13
2022-10-06T21:11:33.624Z,86.54
2022-10-06T21:13:35.109Z,87.68
2022-10-06T21:15:43.297Z,89.51
2022-10-06T21:17:45.150Z,87.86
2022-10-06T21:19:46.926Z,85.00
2022-10-06T21:21:49.273Z,85.74
2022-10-06T21:23:50.796Z,86.35
2022-10-06T21:25:53.868Z,86.40
2022-10-06T21:27:55.329Z,87.28
2022-10-06T21:29:56.829Z,87.69
2022-10-06T21:31:58.314Z,87.40
2022-10-06T21:34:00.283Z,87.52
2022-10-06T21:36:04.531Z,87.39
2022-10-06T21:38:06.042Z,87.21
2022-10-06T21:40:08.265Z,87.65
2022-10-06T21:42:11.091Z,88.36
2022-10-06T21:44:14.121Z,88.46
2022-10-06T21:46:28.045Z,89.03
2022-10-06T21:48:30.377Z,89.08
2022-10-06T21:50:31.897Z,89.36
2022-10-06T21:52:33.397Z,89.39
2022-10-06T21:54:34.979Z,90.02
2022-10-06T21:56:36.461Z,90.37
2022-10-06T21:58:39.286Z,90.50
2022-10-06T22:00:40.776Z,91.08
2022-10-06T22:02:42.285Z,91.25
2022-10-06T22:04:43.805Z,90.72
2022-10-06T22:06:46.082Z,90.46
2022-10-06T22:08:47.929Z,91.08
2022-10-06T22:10:49.415Z,90.88
2022-10-06T22:12:51.117Z,91.52
2022-10-06T22:14:53.913Z,91.41
2022-10-06T22:16:55.367Z,91.53
2022-10-06T22:18:56.828Z,91.14
2022-10-06T22:20:59.311Z,91.94
2022-10-06T22:23:04.755Z,91.78
2022-10-06T22:25:07.164Z,91.81
2022-10-06T22:27:08.654Z,92.14
2022-10-06T22:29:11.013Z,92.22
2022-10-06T22:31:15.020Z,92.53
2022-10-06T22:33:16.641Z,92.62
2022-10-06T22:35:18.155Z,92.45
2022-10-06T22:37:19.668Z,92.59
2022-10-06T22:39:21.229Z,92.47
2022-10-06T22:41:23.406Z,92.53
2022-10-06T22:43:24.954Z,92.41
2022-10-06T22:45:26.498Z,93.20
2022-10-06T22:47:29.483Z,92.59
2022-10-06T22:49:30.956Z,92.94
2022-10-06T22:51:32.581Z,93.21
2022-10-06T22:53:34.369Z,93.14
2022-10-06T22:55:36.154Z,93.58
2022-10-06T22:57:37.653Z,93.54
2022-10-06T22:59:39.141Z,94.30
2022-10-06T23:01:40.674Z,94.40
2022-10-06T23:03:43.633Z,95.24
2022-10-06T23:05:54.091Z,95.06
2022-10-06T23:07:55.641Z,94.11
2022-10-06T23:09:57.217Z,94.77
2022-10-06T23:11:58.764Z,94.36
2022-10-06T23:14:00.680Z,94.52
2022-10-06T23:16:07.392Z,94.90
2022-10-06T23:18:09.399Z,95.44
2022-10-06T23:20:12.524Z,96.03
2022-10-06T23:22:14.026Z,96.14
2022-10-06T23:24:15.516Z,96.48
2022-10-06T23:26:17.937Z,96.71
2022-10-06T23:28:19.508Z,96.39
2022-10-06T23:30:21.080Z,96.21
2022-10-06T23:32:22.819Z,96.36
2022-10-06T23:34:24.316Z,96.21
2022-10-06T23:36:27.045Z,96.13
2022-10-06T23:38:28.981Z,95.81
2022-10-06T23:40:30.472Z,95.89
2022-10-06T23:42:32.086Z,96.61
2022-10-06T23:44:33.696Z,96.72
2022-10-06T23:46:35.255Z,95.88
2022-10-06T23:48:36.781Z,96.42
2022-10-06T23:50:38.299Z,96.00
2022-10-06T23:52:41.121Z,95.77
2022-10-06T23:54:43.108Z,95.90
2022-10-06T23:56:44.642Z,96.44
2022-10-06T23:58:46.254Z,96.18
